Time;durP1;ratioP1;P1;durP2;ratioP2;P2;SDS_P1;SDS_P2;PMS_P1;PMS_P2;Temp;Humidity;BMP_temperature;BMP_pressure;BME280_temperature;BME280_humidity;BME280_pressure;Samples;Min_cycle;Max_cycle;Signal;HPM_P1;HPM_P2
2021/06/21 00:00:11;;;;;;;17.98;5.63;;;19.60;99.90;;;;;;5066078;28;20452;-70
2021/06/21 00:02:41;;;;;;;11.88;4.80;;;19.60;99.90;;;;;;5065971;28;20048;-69
2021/06/21 00:05:10;;;;;;;11.75;5.28;;;19.60;99.90;;;;;;5063305;28;20088;-69
2021/06/21 00:07:37;;;;;;;9.82;4.70;;;19.50;99.90;;;;;;5059519;28;20515;-69
2021/06/21 00:10:06;;;;;;;11.20;5.15;;;19.50;99.90;;;;;;5070509;28;20052;-69
2021/06/21 00:12:35;;;;;;;12.02;4.53;;;19.40;99.90;;;;;;5062504;28;20045;-69
2021/06/21 00:15:04;;;;;;;12.63;5.10;;;19.40;99.90;;;;;;5067981;28;20568;-69
2021/06/21 00:17:31;;;;;;;15.27;5.63;;;19.40;99.90;;;;;;5063467;28;20079;-69
2021/06/21 00:19:58;;;;;;;16.70;5.30;;;19.40;99.90;;;;;;5062326;28;20076;-69
2021/06/21 00:22:26;;;;;;;11.75;4.57;;;19.40;99.90;;;;;;5065811;28;20507;-69
2021/06/21 00:24:53;;;;;;;12.93;4.93;;;19.40;99.90;;;;;;5080577;28;20044;-70
2021/06/21 00:27:21;;;;;;;13.75;5.88;;;19.40;99.90;;;;;;5079131;28;20653;-69
2021/06/21 00:29:48;;;;;;;10.25;4.30;;;19.30;99.90;;;;;;5062115;28;20053;-69
2021/06/21 00:32:16;;;;;;;13.68;5.10;;;19.30;99.90;;;;;;5069711;28;20053;-68
2021/06/21 00:34:44;;;;;;;11.57;5.13;;;19.30;99.90;;;;;;5057280;28;20053;-68
2021/06/21 00:37:11;;;;;;;11.10;4.80;;;19.30;99.90;;;;;;5069755;28;20429;-68
2021/06/21 00:39:39;;;;;;;11.95;5.22;;;19.30;99.90;;;;;;5086240;28;20045;-69
2021/06/21 00:42:06;;;;;;;12.93;5.00;;;19.30;99.90;;;;;;5065654;28;20093;-69
2021/06/21 00:44:33;;;;;;;11.32;4.97;;;19.40;99.90;;;;;;5070271;28;20067;-69
2021/06/21 00:47:01;;;;;;;11.52;5.22;;;19.40;99.90;;;;;;5086339;28;20044;-69
2021/06/21 00:49:28;;;;;;;12.60;5.28;;;19.40;99.90;;;;;;5071728;28;20140;-69
2021/06/21 00:51:57;;;;;;;12.93;5.03;;;19.50;99.90;;;;;;5069810;28;20052;-69
2021/06/21 00:54:25;;;;;;;12.48;5.55;;;19.50;99.90;;;;;;5061189;28;20400;-69
2021/06/21 00:56:52;;;;;;;12.98;5.88;;;19.50;99.90;;;;;;5084756;28;20052;-69
2021/06/21 00:59:20;;;;;;;11.88;5.78;;;19.50;99.90;;;;;;5064064;28;20048;-69
2021/06/21 01:01:47;;;;;;;12.10;5.13;;;19.50;99.90;;;;;;5066900;28;20048;-69
2021/06/21 01:04:15;;;;;;;11.68;5.68;;;19.50;99.90;;;;;;5085417;28;20693;-69
2021/06/21 01:06:43;;;;;;;15.75;5.55;;;19.50;99.90;;;;;;5063092;28;20048;-69
2021/06/21 01:09:10;;;;;;;11.10;5.65;;;19.50;99.90;;;;;;5061311;28;20225;-69
2021/06/21 01:11:58;;;;;;;12.68;5.57;;;19.50;99.90;;;;;;5056105;28;20432;-69
2021/06/21 01:14:56;;;;;;;17.55;5.93;;;19.50;99.90;;;;;;5070138;28;20098;-70
2021/06/21 01:17:47;;;;;;;13.40;6.07;;;19.60;99.90;;;;;;5059794;28;20041;-70
2021/06/21 01:20:32;;;;;;;12.77;5.32;;;19.70;99.90;;;;;;5068163;28;20080;-69
2021/06/21 01:23:22;;;;;;;12.88;5.90;;;19.70;99.90;;;;;;5068722;28;20067;-69
2021/06/21 01:25:58;;;;;;;14.85;5.88;;;19.70;99.90;;;;;;5057457;28;20036;-69
2021/06/21 01:28:56;;;;;;;13.93;7.25;;;19.80;99.90;;;;;;5049833;28;20040;-69
2021/06/21 01:31:50;;;;;;;14.25;7.13;;;19.80;99.90;;;;;;4980539;28;20078;-69
2021/06/21 01:34:20;;;;;;;16.80;7.45;;;19.80;99.90;;;;;;4987373;28;20077;-69
2021/06/21 01:36:52;;;;;;;15.70;9.07;;;19.80;99.90;;;;;;4970971;28;20042;-69
2021/06/21 01:39:20;;;;;;;17.55;8.02;;;19.80;99.90;;;;;;4987463;28;20067;-68
2021/06/21 01:41:52;;;;;;;18.08;7.80;;;19.80;99.90;;;;;;4988676;28;20679;-68
2021/06/21 01:44:23;;;;;;;16.98;8.50;;;19.70;99.90;;;;;;4992753;28;20070;-68
2021/06/21 01:46:52;;;;;;;18.33;8.27;;;19.70;99.90;;;;;;4976199;28;20145;-69
2021/06/21 01:49:28;;;;;;;17.55;8.65;;;19.70;99.90;;;;;;4992453;28;20054;-70
2021/06/21 01:51:58;;;;;;;15.43;8.17;;;19.70;99.90;;;;;;4991658;28;20070;-69
2021/06/21 01:54:29;;;;;;;17.60;8.80;;;19.60;99.90;;;;;;4992135;28;20185;-69
2021/06/21 01:56:58;;;;;;;18.30;7.65;;;19.60;99.90;;;;;;4971742;28;20532;-69
2021/06/21 01:59:28;;;;;;;16.98;7.45;;;19.50;99.90;;;;;;4991449;28;20506;-69
2021/06/21 02:01:59;;;;;;;16.23;6.85;;;19.50;99.90;;;;;;4991504;28;20049;-68
2021/06/21 02:04:31;;;;;;;13.82;6.97;;;19.50;99.90;;;;;;4992379;28;20093;-69
2021/06/21 02:07:02;;;;;;;14.48;6.43;;;19.50;99.90;;;;;;5004191;28;20495;-69
2021/06/21 02:09:30;;;;;;;13.32;6.60;;;19.40;99.90;;;;;;5060040;28;20053;-69
2021/06/21 02:11:59;;;;;;;11.32;5.70;;;19.40;99.90;;;;;;5089417;28;20066;-68
2021/06/21 02:14:29;;;;;;;17.73;6.75;;;19.30;99.90;;;;;;5072196;28;20052;-68
2021/06/21 02:16:59;;;;;;;17.80;7.03;;;19.20;99.90;;;;;;5071921;28;20051;-68
2021/06/21 02:19:30;;;;;;;14.27;6.25;;;19.20;99.90;;;;;;5072275;28;20056;-69
2021/06/21 02:21:59;;;;;;;12.60;5.75;;;19.20;99.90;;;;;;5071953;28;20118;-69
2021/06/21 02:24:26;;;;;;;15.10;6.05;;;19.20;99.90;;;;;;5059600;28;20599;-68
2021/06/21 02:26:54;;;;;;;11.38;5.22;;;19.10;99.90;;;;;;5065223;28;20049;-68
2021/06/21 02:29:26;;;;;;;13.40;5.63;;;19.10;99.90;;;;;;5051559;28;20045;-69
2021/06/21 02:31:53;;;;;;;12.05;5.53;;;19.00;99.90;;;;;;5067412;28;20407;-68
2021/06/21 02:34:20;;;;;;;13.18;6.18;;;19.00;99.90;;;;;;5062051;28;20056;-69
2021/06/21 02:36:48;;;;;;;14.45;5.07;;;19.00;99.90;;;;;;5061882;28;20576;-69
2021/06/21 02:39:17;;;;;;;14.40;6.40;;;19.00;99.90;;;;;;5053020;28;20068;-69
2021/06/21 02:41:45;;;;;;;13.90;6.20;;;18.90;99.90;;;;;;5051282;28;20057;-69
2021/06/21 02:44:12;;;;;;;15.85;6.05;;;18.90;99.90;;;;;;5034976;28;20087;-69
2021/06/21 02:46:39;;;;;;;11.48;5.97;;;18.90;99.90;;;;;;5053054;28;20059;-69
2021/06/21 02:49:07;;;;;;;16.38;6.43;;;18.80;99.90;;;;;;5066995;28;20084;-69
2021/06/21 02:51:54;;;;;;;10.35;4.93;;;18.80;99.90;;;;;;5059460;28;20395;-69
2021/06/21 02:54:47;;;;;;;10.85;5.47;;;18.80;99.90;;;;;;5057118;28;20128;-69
2021/06/21 02:57:30;;;;;;;11.95;6.15;;;18.80;99.90;;;;;;5053927;28;20110;-69
2021/06/21 02:59:58;;;;;;;14.77;6.53;;;18.70;99.90;;;;;;5072358;28;20044;-69
2021/06/21 03:02:27;;;;;;;12.23;5.75;;;18.60;99.90;;;;;;5072164;28;20045;-69
2021/06/21 03:04:57;;;;;;;11.90;5.47;;;18.60;99.90;;;;;;5073360;28;20414;-69
2021/06/21 03:07:26;;;;;;;20.48;5.32;;;18.60;99.90;;;;;;5060218;28;20049;-69
2021/06/21 03:09:53;;;;;;;11.95;5.07;;;18.60;99.90;;;;;;5051402;28;20049;-69
2021/06/21 03:12:27;;;;;;;11.55;4.95;;;18.60;99.90;;;;;;5061481;28;20052;-69
2021/06/21 03:14:55;;;;;;;10.63;4.60;;;18.60;99.90;;;;;;5069021;28;20372;-69
2021/06/21 03:17:23;;;;;;;15.00;4.65;;;18.60;99.90;;;;;;5071200;28;20106;-70
2021/06/21 03:19:51;;;;;;;12.40;4.72;;;18.60;99.90;;;;;;5069941;28;20044;-69
2021/06/21 03:22:20;;;;;;;9.48;4.47;;;18.60;99.90;;;;;;5088005;28;20044;-69
2021/06/21 03:24:55;;;;;;;16.83;4.88;;;18.60;99.90;;;;;;5086947;28;20040;-69
2021/06/21 03:27:35;;;;;;;10.75;4.43;;;18.70;99.90;;;;;;5061907;28;20106;-70
2021/06/21 03:30:12;;;;;;;13.25;5.53;;;18.70;99.90;;;;;;5064582;28;20098;-70
2021/06/21 03:32:45;;;;;;;13.85;4.57;;;18.70;99.90;;;;;;5052202;28;20072;-70
2021/06/21 03:35:14;;;;;;;11.50;3.97;;;18.80;99.90;;;;;;5051700;28;20107;-69
2021/06/21 03:37:41;;;;;;;17.38;4.78;;;18.80;99.90;;;;;;5067164;28;20053;-69
2021/06/21 03:40:10;;;;;;;14.20;4.97;;;18.90;99.90;;;;;;5074610;28;20507;-68
2021/06/21 03:42:38;;;;;;;12.07;4.72;;;18.90;99.90;;;;;;5069390;28;20054;-69
2021/06/21 03:45:08;;;;;;;13.05;4.07;;;19.00;99.90;;;;;;5069316;28;20083;-68
2021/06/21 03:47:36;;;;;;;10.57;4.22;;;19.00;99.90;;;;;;5080246;28;20059;-69
2021/06/21 03:50:05;;;;;;;10.43;3.83;;;19.00;99.90;;;;;;5051386;28;20415;-69
2021/06/21 03:52:36;;;;;;;11.77;3.83;;;19.00;99.90;;;;;;5070986;28;20045;-69
2021/06/21 03:55:06;;;;;;;9.73;3.30;;;19.10;99.90;;;;;;5071982;28;20110;-69
2021/06/21 03:57:45;;;;;;;12.57;3.95;;;19.10;99.90;;;;;;5082155;28;20041;-69
2021/06/21 04:00:19;;;;;;;14.80;4.13;;;19.10;99.90;;;;;;5063978;28;20056;-69
2021/06/21 04:02:47;;;;;;;8.45;3.40;;;19.20;99.90;;;;;;5066402;28;20052;-69
2021/06/21 04:05:15;;;;;;;12.73;3.83;;;19.20;99.90;;;;;;5061133;28;20068;-69
2021/06/21 04:07:43;;;;;;;10.55;3.45;;;19.20;99.90;;;;;;5069771;28;20045;-69
2021/06/21 04:10:16;;;;;;;9.15;3.90;;;19.20;99.90;;;;;;5071106;28;20167;-69
2021/06/21 04:12:44;;;;;;;10.65;3.50;;;19.20;99.90;;;;;;5060863;28;20555;-69
2021/06/21 04:15:14;;;;;;;8.27;3.30;;;19.30;99.90;;;;;;5063246;28;20053;-69
2021/06/21 04:17:43;;;;;;;12.35;3.65;;;19.20;99.90;;;;;;5034144;28;20098;-68
2021/06/21 04:20:19;;;;;;;7.65;2.63;;;19.20;99.90;;;;;;5051417;28;20125;-69
2021/06/21 04:22:46;;;;;;;9.38;3.35;;;19.10;99.90;;;;;;5051762;28;20049;-69
2021/06/21 04:25:16;;;;;;;11.15;3.28;;;19.10;99.90;;;;;;5066210;28;20052;-69
2021/06/21 04:27:45;;;;;;;8.63;2.50;;;19.00;99.90;;;;;;5069765;28;20048;-69
2021/06/21 04:30:16;;;;;;;8.80;2.92;;;19.00;99.90;;;;;;5069770;28;20075;-69
2021/06/21 04:32:44;;;;;;;11.47;2.70;;;19.00;99.90;;;;;;5070288;28;20080;-69
2021/06/21 04:35:16;;;;;;;12.15;2.55;;;19.00;99.90;;;;;;5069900;28;20055;-69
2021/06/21 04:37:44;;;;;;;7.85;2.40;;;19.00;99.90;;;;;;5051937;28;20049;-69
2021/06/21 04:40:17;;;;;;;8.98;2.10;;;19.00;99.90;;;;;;5051092;28;20053;-69
2021/06/21 04:42:45;;;;;;;8.57;2.40;;;19.10;99.90;;;;;;5066522;28;20443;-69
2021/06/21 04:45:13;;;;;;;13.07;2.55;;;19.20;99.90;;;;;;5052668;28;20048;-68
2021/06/21 04:47:41;;;;;;;5.80;1.73;;;19.30;99.90;;;;;;5067878;28;20056;-68
2021/06/21 04:50:12;;;;;;;7.65;1.98;;;19.40;99.90;;;;;;5059472;28;20052;-68
2021/06/21 04:52:42;;;;;;;10.13;3.03;;;19.50;99.90;;;;;;5067197;28;20053;-68
2021/06/21 04:55:11;;;;;;;8.20;2.45;;;19.50;99.90;;;;;;5066168;28;20078;-68
2021/06/21 04:57:38;;;;;;;14.27;2.95;;;19.50;99.90;;;;;;5062930;28;20107;-69
2021/06/21 05:00:14;;;;;;;5.93;2.15;;;19.60;99.90;;;;;;5063948;28;20041;-69
2021/06/21 05:02:42;;;;;;;7.15;2.40;;;19.50;99.90;;;;;;5078233;28;20473;-69
2021/06/21 05:05:10;;;;;;;8.13;2.50;;;19.50;99.90;;;;;;5063260;28;20045;-69
2021/06/21 05:07:40;;;;;;;7.38;2.05;;;19.50;99.90;;;;;;5056028;28;20045;-69
2021/06/21 05:10:09;;;;;;;8.18;2.47;;;19.60;99.90;;;;;;5068719;28;20052;-69
2021/06/21 05:12:37;;;;;;;4.57;1.80;;;19.60;99.90;;;;;;5081280;28;20525;-70
2021/06/21 05:15:05;;;;;;;6.53;2.25;;;19.70;99.90;;;;;;5076616;28;20079;-70
2021/06/21 05:17:33;;;;;;;5.05;2.17;;;19.70;99.90;;;;;;5079746;28;20044;-68
2021/06/21 05:20:05;;;;;;;12.43;3.00;;;19.80;99.90;;;;;;5082625;28;20057;-70
2021/06/21 05:22:34;;;;;;;9.52;2.83;;;19.80;99.90;;;;;;5083055;28;20051;-69
2021/06/21 05:25:02;;;;;;;9.98;2.67;;;19.90;99.90;;;;;;5065799;28;20084;-68
2021/06/21 05:27:30;;;;;;;9.27;3.15;;;19.90;99.90;;;;;;5061498;28;20136;-70
2021/06/21 05:29:58;;;;;;;9.70;2.67;;;19.90;99.90;;;;;;5074353;28;20139;-69
2021/06/21 05:32:27;;;;;;;11.50;2.60;;;20.00;99.90;;;;;;5067652;28;20128;-69
2021/06/21 05:34:54;;;;;;;6.07;2.13;;;20.00;99.90;;;;;;5069785;28;20100;-69
2021/06/21 05:37:22;;;;;;;8.73;3.03;;;20.10;99.90;;;;;;5069564;28;20151;-68
2021/06/21 05:39:49;;;;;;;9.93;3.22;;;20.10;99.90;;;;;;5070434;28;20381;-68
2021/06/21 05:42:18;;;;;;;7.15;2.38;;;20.10;99.90;;;;;;5071220;28;20185;-69
2021/06/21 05:44:46;;;;;;;12.73;2.92;;;20.10;99.90;;;;;;5065821;28;20055;-69
2021/06/21 05:47:14;;;;;;;6.25;2.03;;;20.20;99.90;;;;;;5056572;28;20085;-69
2021/06/21 05:49:42;;;;;;;15.07;5.32;;;20.30;99.90;;;;;;5064474;28;20067;-69
2021/06/21 05:52:10;;;;;;;8.27;2.10;;;20.20;99.90;;;;;;5055834;28;20071;-70
2021/06/21 05:54:37;;;;;;;9.25;3.72;;;20.20;99.90;;;;;;5067943;28;20133;-69
2021/06/21 05:57:05;;;;;;;10.15;3.05;;;20.10;99.90;;;;;;5078541;28;20149;-69
2021/06/21 05:59:33;;;;;;;10.52;2.90;;;20.20;99.90;;;;;;5062198;28;20049;-69
2021/06/21 06:02:01;;;;;;;14.25;3.58;;;20.30;99.90;;;;;;5072033;28;20087;-68
2021/06/21 06:04:28;;;;;;;10.10;2.92;;;20.30;99.90;;;;;;5076570;28;20045;-68
2021/06/21 06:06:56;;;;;;;9.20;2.80;;;20.50;99.90;;;;;;5071750;28;20048;-69
2021/06/21 06:09:23;;;;;;;10.35;2.85;;;20.50;99.90;;;;;;5073472;28;20041;-69
2021/06/21 06:11:51;;;;;;;10.57;3.40;;;20.70;99.90;;;;;;5065321;28;20437;-68
2021/06/21 06:14:18;;;;;;;12.07;2.67;;;20.80;99.90;;;;;;5060295;28;20052;-68
2021/06/21 06:16:46;;;;;;;14.43;3.58;;;20.90;99.90;;;;;;5063352;28;20560;-68
2021/06/21 06:19:13;;;;;;;11.77;3.80;;;21.00;99.90;;;;;;5070920;28;20064;-68
2021/06/21 06:21:42;;;;;;;10.32;3.22;;;21.20;99.90;;;;;;5063146;28;20100;-68
2021/06/21 06:24:11;;;;;;;13.00;3.80;;;21.30;99.90;;;;;;5063034;28;20048;-69
2021/06/21 06:26:43;;;;;;;9.73;3.70;;;21.30;99.90;;;;;;5079664;28;20049;-69
2021/06/21 06:29:11;;;;;;;10.75;3.60;;;21.30;99.90;;;;;;5061522;28;20052;-69
2021/06/21 06:31:44;;;;;;;10.90;3.80;;;21.40;99.90;;;;;;5056359;28;20139;-69
2021/06/21 06:34:13;;;;;;;11.73;3.53;;;21.40;99.90;;;;;;5062004;28;20071;-69
2021/06/21 06:36:40;;;;;;;11.48;3.65;;;21.40;99.90;;;;;;5060939;28;20079;-68
2021/06/21 06:39:08;;;;;;;10.50;3.22;;;21.60;99.90;;;;;;5055094;28;20543;-70
2021/06/21 06:41:35;;;;;;;13.45;3.60;;;21.60;99.90;;;;;;5060967;28;20052;-70
2021/06/21 06:44:04;;;;;;;10.45;3.13;;;21.70;99.90;;;;;;5071478;28;20511;-69
2021/06/21 06:46:31;;;;;;;12.50;3.45;;;21.60;99.90;;;;;;5072140;28;20048;-69
2021/06/21 06:49:00;;;;;;;10.07;3.70;;;21.80;99.90;;;;;;5088057;28;20056;-70
2021/06/21 06:51:30;;;;;;;9.90;3.38;;;21.80;99.90;;;;;;5073058;28;20048;-69
2021/06/21 06:54:19;;;;;;;10.00;3.28;;;21.90;99.90;;;;;;5064199;28;20515;-69
2021/06/21 06:57:04;;;;;;;11.90;3.25;;;21.90;99.90;;;;;;5067968;28;20076;-69
2021/06/21 06:59:37;;;;;;;14.60;3.38;;;22.10;99.90;;;;;;5063597;28;20049;-69
2021/06/21 07:02:12;;;;;;;11.32;3.63;;;21.90;99.90;;;;;;5056674;28;20049;-69
2021/06/21 07:04:39;;;;;;;15.23;3.92;;;21.90;99.90;;;;;;5066429;28;20122;-69
2021/06/21 07:07:07;;;;;;;11.57;2.80;;;21.80;99.90;;;;;;5067935;28;20422;-68
2021/06/21 07:09:35;;;;;;;12.65;2.80;;;21.90;99.90;;;;;;5067260;28;20052;-68
2021/06/21 07:12:03;;;;;;;10.52;3.10;;;21.90;99.90;;;;;;5080044;28;20111;-68
2021/06/21 07:14:30;;;;;;;9.98;3.05;;;22.10;99.90;;;;;;5050945;28;20059;-68
2021/06/21 07:16:58;;;;;;;8.93;2.85;;;22.20;99.90;;;;;;5051574;28;20148;-68
2021/06/21 07:19:25;;;;;;;12.20;3.30;;;22.30;99.90;;;;;;5050977;28;20068;-68
2021/06/21 07:21:53;;;;;;;12.40;3.00;;;22.20;99.90;;;;;;5060449;28;20083;-68
2021/06/21 07:24:22;;;;;;;11.77;3.10;;;22.30;99.90;;;;;;5058279;28;20120;-69
2021/06/21 07:26:51;;;;;;;7.70;2.60;;;22.20;99.90;;;;;;5064009;28;20041;-68
2021/06/21 07:29:19;;;;;;;10.23;3.17;;;22.30;99.90;;;;;;5071354;28;20764;-69
2021/06/21 07:31:47;;;;;;;7.60;2.53;;;22.50;99.90;;;;;;5058216;28;20124;-68
2021/06/21 07:34:15;;;;;;;9.10;3.13;;;22.50;99.90;;;;;;5062657;28;20068;-68
2021/06/21 07:36:42;;;;;;;8.68;2.83;;;22.50;99.90;;;;;;5061708;28;20052;-69
2021/06/21 07:39:10;;;;;;;12.90;2.78;;;22.70;99.90;;;;;;5060412;28;20055;-69
2021/06/21 07:41:38;;;;;;;11.25;2.72;;;22.80;99.90;;;;;;5070326;28;20083;-69
2021/06/21 07:44:05;;;;;;;13.93;2.90;;;22.60;99.90;;;;;;5059569;28;20047;-68
2021/06/21 07:46:33;;;;;;;10.48;2.50;;;22.60;99.90;;;;;;5054286;28;20433;-69
2021/06/21 07:49:02;;;;;;;9.45;2.72;;;22.70;99.90;;;;;;5059619;28;20620;-69
2021/06/21 07:51:30;;;;;;;9.30;2.53;;;22.80;99.90;;;;;;5054243;28;20110;-69
2021/06/21 07:53:58;;;;;;;9.32;2.45;;;23.00;99.90;;;;;;5061274;28;20041;-69
2021/06/21 07:56:25;;;;;;;11.32;3.30;;;23.20;99.90;;;;;;5063008;28;20751;-69
2021/06/21 07:58:54;;;;;;;9.57;2.38;;;23.40;99.90;;;;;;5063578;28;20072;-69
2021/06/21 08:01:21;;;;;;;11.43;2.35;;;23.60;99.90;;;;;;5062648;28;20127;-68
2021/06/21 08:03:49;;;;;;;10.25;2.55;;;23.70;99.90;;;;;;5083576;28;20051;-68
2021/06/21 08:06:17;;;;;;;16.65;3.45;;;23.70;99.90;;;;;;5068527;28;20131;-68
2021/06/21 08:08:44;;;;;;;16.35;2.88;;;23.70;99.90;;;;;;5061887;28;20047;-69
2021/06/21 08:11:13;;;;;;;11.52;2.70;;;23.60;99.90;;;;;;5049486;28;20060;-68
2021/06/21 08:13:55;;;;;;;7.65;2.35;;;23.50;99.90;;;;;;5084085;28;20048;-69
2021/06/21 08:16:23;;;;;;;11.27;3.00;;;23.60;99.90;;;;;;5068750;28;20052;-68
2021/06/21 08:18:50;;;;;;;8.73;2.45;;;23.60;99.90;;;;;;5066410;28;20049;-68
2021/06/21 08:21:18;;;;;;;10.68;2.65;;;23.50;99.90;;;;;;5070239;28;20127;-68
2021/06/21 08:23:45;;;;;;;12.00;2.53;;;23.40;99.90;;;;;;5064882;28;20053;-68
2021/06/21 08:26:14;;;;;;;10.77;2.30;;;23.60;99.90;;;;;;5061618;28;20135;-68
2021/06/21 08:28:41;;;;;;;11.23;2.15;;;23.70;99.90;;;;;;5062797;28;20080;-68
2021/06/21 08:31:08;;;;;;;11.45;2.28;;;23.70;99.90;;;;;;5065993;28;20048;-68
2021/06/21 08:33:36;;;;;;;12.80;2.47;;;23.80;99.90;;;;;;5061318;28;20515;-68
2021/06/21 08:36:06;;;;;;;10.27;2.80;;;23.90;99.90;;;;;;5068152;28;20180;-68
2021/06/21 08:38:35;;;;;;;12.57;2.10;;;24.10;99.90;;;;;;5059976;28;20044;-68
2021/06/21 08:41:04;;;;;;;13.63;2.40;;;24.30;99.90;;;;;;5066269;28;20355;-69
2021/06/21 08:43:32;;;;;;;16.48;2.90;;;24.40;99.90;;;;;;5064330;28;20750;-68
2021/06/21 08:46:00;;;;;;;10.98;3.05;;;24.40;99.90;;;;;;5057780;28;20713;-69
2021/06/21 08:48:30;;;;;;;7.18;2.38;;;24.50;99.90;;;;;;5059065;28;20086;-68
2021/06/21 08:51:01;;;;;;;9.63;2.33;;;24.40;99.90;;;;;;5072358;28;20465;-68
2021/06/21 08:53:28;;;;;;;9.15;2.58;;;24.30;99.90;;;;;;5064159;28;20056;-68
2021/06/21 08:55:56;;;;;;;9.57;2.72;;;24.10;99.90;;;;;;5067743;28;20469;-68
2021/06/21 08:58:23;;;;;;;15.55;2.78;;;24.10;99.90;;;;;;5069136;28;20068;-67
2021/06/21 09:00:50;;;;;;;9.07;2.67;;;24.20;99.90;;;;;;5068736;28;20079;-68
2021/06/21 09:03:19;;;;;;;10.40;2.50;;;24.20;99.90;;;;;;5065299;28;20051;-68
2021/06/21 09:05:47;;;;;;;8.57;2.58;;;24.20;99.90;;;;;;5060676;28;20049;-68
2021/06/21 09:08:15;;;;;;;7.85;2.08;;;24.20;99.90;;;;;;5065730;28;20549;-68
2021/06/21 09:10:43;;;;;;;12.35;2.20;;;24.10;99.90;;;;;;5063739;28;20040;-69
2021/06/21 09:13:16;;;;;;;14.80;2.70;;;24.10;99.90;;;;;;5066147;28;20053;-69
2021/06/21 09:15:53;;;;;;;8.45;2.10;;;24.30;99.90;;;;;;5065688;28;20051;-68
2021/06/21 09:18:40;;;;;;;9.43;2.35;;;24.40;99.90;;;;;;5065769;28;20056;-68
2021/06/21 09:21:23;;;;;;;9.15;2.15;;;24.50;99.90;;;;;;5063112;28;20061;-68
2021/06/21 09:24:22;;;;;;;10.23;2.33;;;24.70;99.90;;;;;;5067317;28;20135;-68
2021/06/21 09:26:58;;;;;;;11.30;2.45;;;24.70;99.90;;;;;;5066896;28;20454;-69
2021/06/21 09:29:36;;;;;;;9.55;2.78;;;24.70;99.90;;;;;;5068801;28;20144;-68
2021/06/21 09:32:43;;;;;;;7.60;2.05;;;24.70;99.90;;;;;;5057383;28;20055;-69
2021/06/21 09:35:32;;;;;;;10.98;2.10;;;24.80;99.90;;;;;;5064948;28;20376;-68
2021/06/21 09:38:10;;;;;;;5.75;1.70;;;25.00;99.90;;;;;;5067406;28;20037;-68
2021/06/21 09:40:47;;;;;;;7.90;1.83;;;25.10;99.90;;;;;;5069877;28;20052;-68
2021/06/21 09:43:26;;;;;;;9.00;1.80;;;25.20;99.90;;;;;;5067106;28;20076;-68
2021/06/21 09:46:12;;;;;;;9.77;2.22;;;25.20;99.90;;;;;;5056903;28;20463;-68
2021/06/21 09:48:49;;;;;;;7.88;2.00;;;25.00;99.90;;;;;;5060740;28;20151;-69
2021/06/21 09:51:31;;;;;;;10.52;2.05;;;25.00;99.90;;;;;;5067087;28;20075;-68
2021/06/21 09:54:06;;;;;;;13.82;2.20;;;25.10;99.90;;;;;;5069158;28;20052;-69
2021/06/21 09:56:49;;;;;;;9.32;2.03;;;25.20;99.90;;;;;;5069710;28;20072;-68
2021/06/21 09:59:28;;;;;;;7.63;2.25;;;25.20;99.90;;;;;;5054477;28;20060;-69
2021/06/21 10:02:06;;;;;;;6.43;1.70;;;25.20;99.90;;;;;;5064837;28;20068;-68
2021/06/21 10:04:35;;;;;;;8.27;2.20;;;25.30;99.90;;;;;;5055986;28;20491;-69
2021/06/21 10:07:04;;;;;;;8.30;2.05;;;25.30;99.90;;;;;;5059664;28;20122;-68
2021/06/21 10:09:31;;;;;;;8.38;1.80;;;25.40;99.90;;;;;;5069497;28;20494;-69
2021/06/21 10:11:59;;;;;;;9.13;2.28;;;25.60;99.90;;;;;;5064914;28;20052;-68
2021/06/21 10:14:27;;;;;;;5.47;1.67;;;25.30;99.90;;;;;;5073129;28;20491;-69
2021/06/21 10:16:55;;;;;;;9.23;1.83;;;25.30;99.90;;;;;;5067919;28;20128;-70
2021/06/21 10:19:23;;;;;;;9.25;2.20;;;25.40;99.90;;;;;;5053227;28;20056;-68
2021/06/21 10:21:54;;;;;;;6.45;2.45;;;25.50;99.90;;;;;;5064528;28;20048;-68
2021/06/21 10:24:26;;;;;;;7.28;2.60;;;25.80;99.90;;;;;;5077348;28;20135;-68
2021/06/21 10:26:54;;;;;;;9.30;2.17;;;25.90;99.90;;;;;;5067686;28;20075;-69
2021/06/21 10:29:22;;;;;;;11.45;2.10;;;26.20;99.90;;;;;;5064593;28;20079;-69
2021/06/21 10:31:50;;;;;;;8.52;2.10;;;26.40;99.90;;;;;;5055501;28;20080;-68
2021/06/21 10:34:20;;;;;;;8.48;1.58;;;26.50;99.90;;;;;;5057511;28;20051;-69
2021/06/21 10:36:56;;;;;;;10.13;1.83;;;26.70;99.90;;;;;;5047413;28;20411;-68
2021/06/21 10:39:43;;;;;;;7.05;2.30;;;26.90;99.90;;;;;;5064741;28;20132;-68
2021/06/21 10:42:15;;;;;;;8.77;1.88;;;27.10;99.90;;;;;;5058963;28;20120;-68
2021/06/21 10:44:58;;;;;;;10.20;1.73;;;26.90;99.90;;;;;;5045657;28;20468;-68
2021/06/21 10:47:30;;;;;;;11.10;2.08;;;26.80;99.90;;;;;;5070642;28;20053;-68
2021/06/21 10:50:16;;;;;;;4.70;1.10;;;26.90;99.90;;;;;;5054756;28;20064;-68
2021/06/21 10:52:50;;;;;;;7.75;1.50;;;26.80;99.90;;;;;;5068201;28;20517;-68
2021/06/21 10:55:25;;;;;;;4.85;1.20;;;26.70;99.90;;;;;;5070728;28;20064;-68
2021/06/21 10:58:03;;;;;;;7.65;1.80;;;26.80;99.90;;;;;;5070048;28;20048;-68
2021/06/21 11:00:43;;;;;;;5.55;1.67;;;26.80;99.90;;;;;;5071573;28;20045;-68
2021/06/21 11:03:26;;;;;;;5.80;1.80;;;26.80;99.90;;;;;;5069628;28;20053;-68
2021/06/21 11:06:00;;;;;;;9.18;3.10;;;26.60;99.90;;;;;;5058463;28;20123;-68
2021/06/21 11:08:46;;;;;;;5.10;1.80;;;26.70;99.90;;;;;;5069880;28;20049;-68
2021/06/21 11:11:45;;;;;;;14.02;2.50;;;26.80;99.90;;;;;;5085774;28;20125;-68
2021/06/21 11:14:13;;;;;;;7.97;1.90;;;26.90;99.90;;;;;;5070895;28;20514;-68
2021/06/21 11:16:43;;;;;;;7.05;2.05;;;27.20;99.90;;;;;;5070438;28;20055;-68
2021/06/21 11:19:13;;;;;;;8.85;2.05;;;27.40;99.90;;;;;;5072273;28;20152;-68
2021/06/21 11:21:47;;;;;;;7.55;2.08;;;27.70;99.90;;;;;;5068559;28;20124;-68
2021/06/21 11:24:36;;;;;;;5.05;1.70;;;27.70;99.90;;;;;;5067763;28;20088;-68
2021/06/21 11:27:08;;;;;;;4.50;1.67;;;28.00;99.90;;;;;;5071381;28;20060;-68
2021/06/21 11:29:40;;;;;;;4.80;1.67;;;28.10;99.90;;;;;;5071430;28;20056;-68
2021/06/21 11:32:10;;;;;;;10.57;3.20;;;28.30;99.90;;;;;;5070699;28;20656;-68
2021/06/21 11:34:44;;;;;;;5.55;1.50;;;28.50;99.90;;;;;;5065313;28;20049;-68
2021/06/21 11:37:35;;;;;;;6.03;1.63;;;28.40;99.90;;;;;;5060321;28;20729;-69
2021/06/21 11:40:28;;;;;;;4.47;1.40;;;28.50;99.90;;;;;;5051403;28;20045;-68
2021/06/21 11:43:01;;;;;;;6.43;1.40;;;28.20;99.90;;;;;;5072828;28;20126;-68
2021/06/21 11:45:54;;;;;;;4.55;1.70;;;28.20;99.90;;;;;;5063360;28;20049;-68
2021/06/21 11:48:31;;;;;;;4.78;1.60;;;28.30;99.90;;;;;;5059163;28;20080;-68
2021/06/21 11:51:10;;;;;;;4.68;1.70;;;28.50;99.90;;;;;;5066455;28;20538;-68
2021/06/21 11:53:41;;;;;;;7.13;1.60;;;28.90;99.90;;;;;;5067953;28;20076;-68
2021/06/21 11:56:21;;;;;;;6.80;1.75;;;29.30;99.90;;;;;;5062445;28;20102;-68
2021/06/21 11:58:50;;;;;;;5.88;2.00;;;29.30;99.90;;;;;;5067648;28;20060;-68
2021/06/21 12:01:24;;;;;;;6.22;1.80;;;29.20;99.90;;;;;;5067228;28;20052;-68
2021/06/21 12:03:59;;;;;;;6.38;1.92;;;29.70;99.90;;;;;;5068615;28;20336;-68
2021/06/21 12:06:28;;;;;;;5.20;1.45;;;29.90;99.90;;;;;;5058326;28;20041;-68
2021/06/21 12:08:56;;;;;;;6.28;1.58;;;29.90;99.90;;;;;;5070441;28;20139;-68
2021/06/21 12:11:26;;;;;;;3.83;1.52;;;30.20;99.90;;;;;;5058543;28;20562;-68
2021/06/21 12:14:05;;;;;;;8.30;1.85;;;30.60;99.90;;;;;;5054066;28;20049;-68
2021/06/21 12:16:39;;;;;;;3.35;1.27;;;30.90;99.90;;;;;;5057973;28;20040;-69
2021/06/21 12:19:07;;;;;;;4.20;1.83;;;31.00;99.90;;;;;;5054971;28;20110;-68
2021/06/21 12:21:40;;;;;;;4.38;1.20;;;31.20;99.90;;;;;;5064283;28;20054;-68
2021/06/21 12:24:14;;;;;;;6.40;1.45;;;31.60;99.90;;;;;;5068178;28;20044;-68
2021/06/21 12:26:43;;;;;;;4.95;1.58;;;32.00;99.90;;;;;;5050419;28;20064;-68
2021/06/21 12:29:20;;;;;;;6.65;1.52;;;31.70;99.90;;;;;;5054463;28;20072;-69
2021/06/21 12:31:53;;;;;;;5.55;1.77;;;31.60;99.90;;;;;;5058057;28;20056;-69
2021/06/21 12:34:55;;;;;;;3.60;1.35;;;31.90;99.90;;;;;;5055313;28;20041;-69
2021/06/21 12:37:36;;;;;;;;;;;32.50;99.90;;;;;;5063484;28;20092;-69
2021/06/21 12:40:14;;;;;;;4.55;1.42;;;32.80;99.90;;;;;;5062027;28;20031;-69
2021/06/21 12:42:43;;;;;;;3.17;1.40;;;33.40;99.90;;;;;;5066316;28;20511;-69
2021/06/21 12:45:16;;;;;;;4.68;1.60;;;34.00;99.90;;;;;;5053586;28;20063;-69
2021/06/21 12:47:47;;;;;;;7.13;1.52;;;33.80;99.30;;;;;;5062104;28;20052;-69
2021/06/21 12:50:16;;;;;;;;;;;33.70;98.60;;;;;;5067442;28;20463;-68
2021/06/21 12:52:48;;;;;;;6.70;1.88;;;32.90;98.60;;;;;;5066873;28;19921;-68
2021/06/21 12:55:21;;;;;;;7.28;1.50;;;32.00;98.80;;;;;;5066286;28;20090;-69
2021/06/21 12:58:03;;;;;;;3.40;1.58;;;31.70;99.50;;;;;;5068583;28;20064;-68
2021/06/21 13:00:48;;;;;;;9.40;1.67;;;30.90;99.40;;;;;;5069382;28;20043;-69
2021/06/21 13:03:22;;;;;;;4.43;1.60;;;31.00;99.90;;;;;;5070273;28;20056;-68